sensor_id;sensor_type;location;lat;lon;timestamp;P1;durP1;ratioP1;P2;durP2;ratioP2
42364;SDS011;28498;54.400;18.566;2022-10-17T00:00:48;26.30;;;13.38;;
42364;SDS011;28498;54.400;18.566;2022-10-17T00:03:15;22.35;;;13.38;;
42364;SDS011;28498;54.400;18.566;2022-10-17T00:05:43;24.23;;;12.68;;
42364;SDS011;28498;54.400;18.566;2022-10-17T00:08:13;24.45;;;13.25;;
42364;SDS011;28498;54.400;18.566;2022-10-17T00:10:41;26.30;;;14.23;;
42364;SDS011;28498;54.400;18.566;2022-10-17T00:13:08;25.98;;;14.70;;
42364;SDS011;28498;54.400;18.566;2022-10-17T00:15:36;24.48;;;13.93;;
42364;SDS011;28498;54.400;18.566;2022-10-17T00:18:03;23.10;;;14.43;;
42364;SDS011;28498;54.400;18.566;2022-10-17T00:20:33;25.63;;;14.77;;
42364;SDS011;28498;54.400;18.566;2022-10-17T00:23:01;25.05;;;14.25;;
42364;SDS011;28498;54.400;18.566;2022-10-17T00:25:28;25.15;;;15.05;;
42364;SDS011;28498;54.400;18.566;2022-10-17T00:27:55;25.50;;;13.57;;
42364;SDS011;28498;54.400;18.566;2022-10-17T00:30:21;27.50;;;14.30;;
42364;SDS011;28498;54.400;18.566;2022-10-17T00:32:48;27.27;;;14.45;;
42364;SDS011;28498;54.400;18.566;2022-10-17T00:35:15;26.63;;;14.30;;
42364;SDS011;28498;54.400;18.566;2022-10-17T00:37:42;25.67;;;13.60;;
42364;SDS011;28498;54.400;18.566;2022-10-17T00:40:09;24.67;;;14.30;;
42364;SDS011;28498;54.400;18.566;2022-10-17T00:42:36;25.35;;;14.30;;
42364;SDS011;28498;54.400;18.566;2022-10-17T00:45:15;28.48;;;14.98;;
42364;SDS011;28498;54.400;18.566;2022-10-17T00:47:46;27.23;;;14.88;;
42364;SDS011;28498;54.400;18.566;2022-10-17T00:50:17;30.80;;;15.88;;
42364;SDS011;28498;54.400;18.566;2022-10-17T00:52:45;25.42;;;14.50;;
42364;SDS011;28498;54.400;18.566;2022-10-17T00:55:16;25.83;;;14.88;;
42364;SDS011;28498;54.400;18.566;2022-10-17T00:57:49;32.42;;;15.57;;
42364;SDS011;28498;54.400;18.566;2022-10-17T01:00:17;31.77;;;15.50;;
42364;SDS011;28498;54.400;18.566;2022-10-17T01:02:45;33.50;;;15.43;;
42364;SDS011;28498;54.400;18.566;2022-10-17T01:05:13;24.50;;;14.10;;
42364;SDS011;28498;54.400;18.566;2022-10-17T01:07:41;28.70;;;14.25;;
42364;SDS011;28498;54.400;18.566;2022-10-17T01:10:09;28.30;;;15.10;;
42364;SDS011;28498;54.400;18.566;2022-10-17T01:20:59;25.83;;;14.88;;
42364;SDS011;28498;54.400;18.566;2022-10-17T01:26:15;32.33;;;16.25;;
42364;SDS011;28498;54.400;18.566;2022-10-17T01:31:41;28.20;;;15.32;;
42364;SDS011;28498;54.400;18.566;2022-10-17T01:37:01;25.92;;;14.80;;
42364;SDS011;28498;54.400;18.566;2022-10-17T01:44:54;27.85;;;15.10;;
42364;SDS011;28498;54.400;18.566;2022-10-17T01:47:29;28.75;;;14.98;;
42364;SDS011;28498;54.400;18.566;2022-10-17T01:50:00;32.47;;;15.73;;
42364;SDS011;28498;54.400;18.566;2022-10-17T01:52:37;31.15;;;15.88;;
42364;SDS011;28498;54.400;18.566;2022-10-17T01:55:21;25.95;;;15.30;;
42364;SDS011;28498;54.400;18.566;2022-10-17T01:58:03;24.98;;;15.30;;
42364;SDS011;28498;54.400;18.566;2022-10-17T02:00:39;25.30;;;14.55;;
42364;SDS011;28498;54.400;18.566;2022-10-17T02:03:11;28.15;;;15.65;;
42364;SDS011;28498;54.400;18.566;2022-10-17T02:05:42;30.98;;;14.90;;
42364;SDS011;28498;54.400;18.566;2022-10-17T02:08:10;35.35;;;15.95;;
42364;SDS011;28498;54.400;18.566;2022-10-17T02:10:38;27.55;;;14.15;;
42364;SDS011;28498;54.400;18.566;2022-10-17T02:15:58;25.00;;;13.90;;
42364;SDS011;28498;54.400;18.566;2022-10-17T02:21:55;31.13;;;15.85;;
42364;SDS011;28498;54.400;18.566;2022-10-17T02:29:32;29.63;;;14.70;;
42364;SDS011;28498;54.400;18.566;2022-10-17T02:32:05;31.05;;;15.25;;
42364;SDS011;28498;54.400;18.566;2022-10-17T02:34:38;29.83;;;16.08;;
42364;SDS011;28498;54.400;18.566;2022-10-17T02:37:09;27.13;;;14.32;;
42364;SDS011;28498;54.400;18.566;2022-10-17T02:39:40;26.30;;;13.70;;
42364;SDS011;28498;54.400;18.566;2022-10-17T02:42:09;27.75;;;15.40;;
42364;SDS011;28498;54.400;18.566;2022-10-17T02:44:39;22.85;;;14.50;;
42364;SDS011;28498;54.400;18.566;2022-10-17T02:47:21;34.50;;;17.80;;
42364;SDS011;28498;54.400;18.566;2022-10-17T02:49:52;25.13;;;15.70;;
42364;SDS011;28498;54.400;18.566;2022-10-17T02:52:25;29.35;;;16.17;;
42364;SDS011;28498;54.400;18.566;2022-10-17T02:55:07;28.00;;;16.02;;
42364;SDS011;28498;54.400;18.566;2022-10-17T02:57:47;26.52;;;15.70;;
42364;SDS011;28498;54.400;18.566;2022-10-17T03:00:18;27.25;;;16.50;;
42364;SDS011;28498;54.400;18.566;2022-10-17T03:02:48;21.98;;;14.98;;
42364;SDS011;28498;54.400;18.566;2022-10-17T03:07:47;23.02;;;15.60;;
42364;SDS011;28498;54.400;18.566;2022-10-17T03:10:14;28.27;;;15.57;;
42364;SDS011;28498;54.400;18.566;2022-10-17T03:12:41;27.20;;;14.50;;
42364;SDS011;28498;54.400;18.566;2022-10-17T03:15:09;23.88;;;15.02;;
42364;SDS011;28498;54.400;18.566;2022-10-17T03:17:36;20.55;;;13.45;;
42364;SDS011;28498;54.400;18.566;2022-10-17T03:20:04;30.23;;;16.40;;
42364;SDS011;28498;54.400;18.566;2022-10-17T03:22:32;21.88;;;14.20;;
42364;SDS011;28498;54.400;18.566;2022-10-17T03:24:59;23.17;;;13.65;;
42364;SDS011;28498;54.400;18.566;2022-10-17T03:27:26;22.33;;;13.95;;
42364;SDS011;28498;54.400;18.566;2022-10-17T03:29:53;25.50;;;13.27;;
42364;SDS011;28498;54.400;18.566;2022-10-17T03:32:20;21.88;;;13.57;;
42364;SDS011;28498;54.400;18.566;2022-10-17T03:34:47;19.42;;;11.80;;
42364;SDS011;28498;54.400;18.566;2022-10-17T03:37:14;19.08;;;12.52;;
42364;SDS011;28498;54.400;18.566;2022-10-17T03:39:41;17.45;;;11.48;;
42364;SDS011;28498;54.400;18.566;2022-10-17T03:42:08;17.40;;;11.85;;
42364;SDS011;28498;54.400;18.566;2022-10-17T03:44:35;21.17;;;12.98;;
42364;SDS011;28498;54.400;18.566;2022-10-17T03:47:02;20.65;;;12.57;;
42364;SDS011;28498;54.400;18.566;2022-10-17T03:49:29;18.73;;;12.35;;
42364;SDS011;28498;54.400;18.566;2022-10-17T03:51:55;20.02;;;12.10;;
42364;SDS011;28498;54.400;18.566;2022-10-17T03:54:22;18.17;;;11.52;;
42364;SDS011;28498;54.400;18.566;2022-10-17T03:56:49;19.58;;;12.25;;
42364;SDS011;28498;54.400;18.566;2022-10-17T03:59:16;15.00;;;11.00;;
42364;SDS011;28498;54.400;18.566;2022-10-17T04:01:43;18.08;;;9.95;;
42364;SDS011;28498;54.400;18.566;2022-10-17T04:04:11;16.58;;;10.15;;
42364;SDS011;28498;54.400;18.566;2022-10-17T04:06:38;16.00;;;10.65;;
42364;SDS011;28498;54.400;18.566;2022-10-17T04:09:05;13.43;;;8.52;;
42364;SDS011;28498;54.400;18.566;2022-10-17T04:11:32;16.63;;;10.00;;
42364;SDS011;28498;54.400;18.566;2022-10-17T04:13:59;13.70;;;8.80;;
42364;SDS011;28498;54.400;18.566;2022-10-17T04:16:27;11.93;;;8.27;;
42364;SDS011;28498;54.400;18.566;2022-10-17T04:18:54;12.30;;;8.20;;
42364;SDS011;28498;54.400;18.566;2022-10-17T04:21:23;14.23;;;9.98;;
42364;SDS011;28498;54.400;18.566;2022-10-17T04:23:53;16.58;;;10.23;;
42364;SDS011;28498;54.400;18.566;2022-10-17T04:26:24;17.75;;;10.95;;
42364;SDS011;28498;54.400;18.566;2022-10-17T04:28:52;20.00;;;13.70;;
42364;SDS011;28498;54.400;18.566;2022-10-17T04:31:19;17.30;;;12.35;;
42364;SDS011;28498;54.400;18.566;2022-10-17T04:33:46;16.13;;;10.98;;
42364;SDS011;28498;54.400;18.566;2022-10-17T04:36:16;17.67;;;11.00;;
42364;SDS011;28498;54.400;18.566;2022-10-17T04:38:45;13.73;;;9.00;;
42364;SDS011;28498;54.400;18.566;2022-10-17T04:41:14;11.70;;;9.40;;
42364;SDS011;28498;54.400;18.566;2022-10-17T04:43:42;18.48;;;10.80;;
42364;SDS011;28498;54.400;18.566;2022-10-17T04:46:16;18.25;;;11.20;;
42364;SDS011;28498;54.400;18.566;2022-10-17T04:48:43;14.45;;;10.73;;
42364;SDS011;28498;54.400;18.566;2022-10-17T04:51:11;16.40;;;10.95;;
42364;SDS011;28498;54.400;18.566;2022-10-17T04:53:40;20.15;;;12.05;;
42364;SDS011;28498;54.400;18.566;2022-10-17T04:56:12;20.27;;;11.73;;
42364;SDS011;28498;54.400;18.566;2022-10-17T04:58:40;17.42;;;11.27;;
42364;SDS011;28498;54.400;18.566;2022-10-17T05:01:18;18.30;;;11.27;;
42364;SDS011;28498;54.400;18.566;2022-10-17T05:03:46;16.02;;;10.85;;
42364;SDS011;28498;54.400;18.566;2022-10-17T05:06:15;15.10;;;9.80;;
42364;SDS011;28498;54.400;18.566;2022-10-17T05:08:43;14.77;;;9.20;;
42364;SDS011;28498;54.400;18.566;2022-10-17T05:11:15;16.50;;;9.55;;
42364;SDS011;28498;54.400;18.566;2022-10-17T05:13:48;14.57;;;9.70;;
42364;SDS011;28498;54.400;18.566;2022-10-17T05:16:26;13.35;;;9.27;;
42364;SDS011;28498;54.400;18.566;2022-10-17T05:18:55;13.50;;;8.93;;
42364;SDS011;28498;54.400;18.566;2022-10-17T05:21:23;12.93;;;8.10;;
42364;SDS011;28498;54.400;18.566;2022-10-17T05:23:51;14.02;;;8.38;;
42364;SDS011;28498;54.400;18.566;2022-10-17T05:26:18;13.10;;;9.32;;
42364;SDS011;28498;54.400;18.566;2022-10-17T05:28:46;15.48;;;10.52;;
42364;SDS011;28498;54.400;18.566;2022-10-17T05:31:13;16.15;;;9.95;;
42364;SDS011;28498;54.400;18.566;2022-10-17T05:33:40;15.38;;;10.40;;
42364;SDS011;28498;54.400;18.566;2022-10-17T05:36:07;15.13;;;10.98;;
42364;SDS011;28498;54.400;18.566;2022-10-17T05:38:35;14.40;;;10.40;;
42364;SDS011;28498;54.400;18.566;2022-10-17T05:41:03;14.68;;;10.15;;
42364;SDS011;28498;54.400;18.566;2022-10-17T05:43:30;15.85;;;10.32;;
42364;SDS011;28498;54.400;18.566;2022-10-17T05:46:01;19.98;;;10.57;;
42364;SDS011;28498;54.400;18.566;2022-10-17T05:48:30;16.90;;;10.40;;
42364;SDS011;28498;54.400;18.566;2022-10-17T05:51:02;15.75;;;10.82;;
42364;SDS011;28498;54.400;18.566;2022-10-17T05:57:24;16.60;;;10.07;;
42364;SDS011;28498;54.400;18.566;2022-10-17T05:59:52;15.55;;;11.02;;
42364;SDS011;28498;54.400;18.566;2022-10-17T06:02:19;15.27;;;10.05;;
42364;SDS011;28498;54.400;18.566;2022-10-17T06:04:47;13.82;;;9.60;;
42364;SDS011;28498;54.400;18.566;2022-10-17T06:07:15;17.40;;;10.30;;
42364;SDS011;28498;54.400;18.566;2022-10-17T06:09:42;18.85;;;10.73;;
42364;SDS011;28498;54.400;18.566;2022-10-17T06:12:12;16.30;;;9.98;;
42364;SDS011;28498;54.400;18.566;2022-10-17T06:14:39;15.50;;;10.40;;
42364;SDS011;28498;54.400;18.566;2022-10-17T06:17:06;14.38;;;10.10;;
42364;SDS011;28498;54.400;18.566;2022-10-17T06:19:38;12.30;;;8.50;;
42364;SDS011;28498;54.400;18.566;2022-10-17T06:22:06;13.52;;;8.75;;
42364;SDS011;28498;54.400;18.566;2022-10-17T06:24:33;15.27;;;8.70;;
42364;SDS011;28498;54.400;18.566;2022-10-17T06:27:00;11.98;;;7.85;;
42364;SDS011;28498;54.400;18.566;2022-10-17T06:29:27;13.63;;;9.68;;
42364;SDS011;28498;54.400;18.566;2022-10-17T06:31:54;11.00;;;8.27;;
42364;SDS011;28498;54.400;18.566;2022-10-17T06:34:21;15.35;;;8.15;;
42364;SDS011;28498;54.400;18.566;2022-10-17T06:36:48;14.48;;;9.77;;
42364;SDS011;28498;54.400;18.566;2022-10-17T06:39:15;18.40;;;9.10;;
42364;SDS011;28498;54.400;18.566;2022-10-17T06:45:29;14.52;;;9.43;;
42364;SDS011;28498;54.400;18.566;2022-10-17T06:47:56;14.73;;;9.40;;
42364;SDS011;28498;54.400;18.566;2022-10-17T06:50:23;14.77;;;9.10;;
42364;SDS011;28498;54.400;18.566;2022-10-17T06:56:43;19.13;;;10.07;;
42364;SDS011;28498;54.400;18.566;2022-10-17T06:59:10;19.88;;;10.48;;
42364;SDS011;28498;54.400;18.566;2022-10-17T07:01:37;14.77;;;9.75;;
42364;SDS011;28498;54.400;18.566;2022-10-17T07:04:08;20.48;;;10.10;;
42364;SDS011;28498;54.400;18.566;2022-10-17T07:06:35;17.70;;;9.25;;
42364;SDS011;28498;54.400;18.566;2022-10-17T07:09:03;33.92;;;13.82;;
42364;SDS011;28498;54.400;18.566;2022-10-17T07:15:19;27.98;;;21.27;;
42364;SDS011;28498;54.400;18.566;2022-10-17T07:17:49;31.33;;;21.23;;
42364;SDS011;28498;54.400;18.566;2022-10-17T07:20:16;25.52;;;18.30;;
42364;SDS011;28498;54.400;18.566;2022-10-17T07:22:43;25.35;;;16.70;;
42364;SDS011;28498;54.400;18.566;2022-10-17T07:25:10;23.58;;;16.60;;
42364;SDS011;28498;54.400;18.566;2022-10-17T07:27:37;18.08;;;15.57;;
42364;SDS011;28498;54.400;18.566;2022-10-17T07:30:04;15.45;;;11.93;;
42364;SDS011;28498;54.400;18.566;2022-10-17T07:32:31;19.80;;;12.13;;
42364;SDS011;28498;54.400;18.566;2022-10-17T07:34:58;18.83;;;12.15;;
42364;SDS011;28498;54.400;18.566;2022-10-17T07:37:25;19.60;;;11.90;;
42364;SDS011;28498;54.400;18.566;2022-10-17T07:39:53;15.05;;;10.38;;
42364;SDS011;28498;54.400;18.566;2022-10-17T07:42:21;16.02;;;9.07;;
42364;SDS011;28498;54.400;18.566;2022-10-17T07:44:49;17.10;;;10.63;;
42364;SDS011;28498;54.400;18.566;2022-10-17T07:47:16;12.80;;;9.13;;
42364;SDS011;28498;54.400;18.566;2022-10-17T07:49:43;11.07;;;7.60;;
42364;SDS011;28498;54.400;18.566;2022-10-17T07:52:13;14.90;;;8.43;;
42364;SDS011;28498;54.400;18.566;2022-10-17T07:54:42;13.80;;;7.32;;
42364;SDS011;28498;54.400;18.566;2022-10-17T07:57:09;12.45;;;7.78;;
42364;SDS011;28498;54.400;18.566;2022-10-17T07:59:36;14.07;;;5.55;;
42364;SDS011;28498;54.400;18.566;2022-10-17T08:02:04;9.02;;;4.55;;
42364;SDS011;28498;54.400;18.566;2022-10-17T08:04:33;14.00;;;5.10;;
42364;SDS011;28498;54.400;18.566;2022-10-17T08:07:01;12.20;;;3.60;;
42364;SDS011;28498;54.400;18.566;2022-10-17T08:09:46;7.90;;;3.05;;
42364;SDS011;28498;54.400;18.566;2022-10-17T08:12:12;12.10;;;4.72;;
42364;SDS011;28498;54.400;18.566;2022-10-17T08:14:40;9.30;;;3.33;;
42364;SDS011;28498;54.400;18.566;2022-10-17T08:17:08;6.80;;;3.58;;
42364;SDS011;28498;54.400;18.566;2022-10-17T08:19:38;15.07;;;4.10;;
42364;SDS011;28498;54.400;18.566;2022-10-17T08:22:06;7.22;;;2.65;;
42364;SDS011;28498;54.400;18.566;2022-10-17T08:24:33;8.85;;;2.78;;
42364;SDS011;28498;54.400;18.566;2022-10-17T08:27:00;6.25;;;2.90;;
42364;SDS011;28498;54.400;18.566;2022-10-17T08:29:27;6.00;;;2.55;;
42364;SDS011;28498;54.400;18.566;2022-10-17T08:31:54;6.85;;;2.60;;
42364;SDS011;28498;54.400;18.566;2022-10-17T08:34:26;9.65;;;2.40;;
42364;SDS011;28498;54.400;18.566;2022-10-17T08:36:53;11.88;;;3.13;;
42364;SDS011;28498;54.400;18.566;2022-10-17T08:39:20;9.85;;;2.95;;
42364;SDS011;28498;54.400;18.566;2022-10-17T08:44:38;8.52;;;2.65;;
42364;SDS011;28498;54.400;18.566;2022-10-17T08:47:22;6.72;;;2.80;;
42364;SDS011;28498;54.400;18.566;2022-10-17T08:50:00;7.13;;;2.03;;
42364;SDS011;28498;54.400;18.566;2022-10-17T08:55:48;6.97;;;1.90;;
42364;SDS011;28498;54.400;18.566;2022-10-17T08:58:23;11.10;;;2.63;;
42364;SDS011;28498;54.400;18.566;2022-10-17T09:06:24;7.47;;;2.10;;
42364;SDS011;28498;54.400;18.566;2022-10-17T09:17:17;6.80;;;1.67;;
42364;SDS011;28498;54.400;18.566;2022-10-17T09:20:08;7.95;;;2.10;;
42364;SDS011;28498;54.400;18.566;2022-10-17T09:25:17;6.70;;;2.50;;
42364;SDS011;28498;54.400;18.566;2022-10-17T09:28:03;11.38;;;3.33;;
42364;SDS011;28498;54.400;18.566;2022-10-17T09:30:39;12.85;;;2.80;;
42364;SDS011;28498;54.400;18.566;2022-10-17T09:33:29;12.73;;;3.35;;
42364;SDS011;28498;54.400;18.566;2022-10-17T09:36:23;9.85;;;2.90;;
42364;SDS011;28498;54.400;18.566;2022-10-17T09:38:56;7.25;;;2.10;;
42364;SDS011;28498;54.400;18.566;2022-10-17T09:41:46;7.75;;;2.13;;
42364;SDS011;28498;54.400;18.566;2022-10-17T09:44:20;5.22;;;2.58;;
42364;SDS011;28498;54.400;18.566;2022-10-17T09:47:37;6.75;;;2.53;;
42364;SDS011;28498;54.400;18.566;2022-10-17T09:49:42;5.57;;;2.47;;
42364;SDS011;28498;54.400;18.566;2022-10-17T09:52:13;8.27;;;2.70;;
42364;SDS011;28498;54.400;18.566;2022-10-17T09:54:44;5.78;;;2.50;;
42364;SDS011;28498;54.400;18.566;2022-10-17T09:57:15;9.82;;;2.40;;
42364;SDS011;28498;54.400;18.566;2022-10-17T09:59:45;10.52;;;3.50;;
42364;SDS011;28498;54.400;18.566;2022-10-17T10:02:23;8.57;;;3.08;;
42364;SDS011;28498;54.400;18.566;2022-10-17T10:04:51;5.75;;;3.13;;
42364;SDS011;28498;54.400;18.566;2022-10-17T10:07:31;6.43;;;2.50;;
42364;SDS011;28498;54.400;18.566;2022-10-17T10:10:00;6.38;;;2.55;;
42364;SDS011;28498;54.400;18.566;2022-10-17T10:12:31;5.32;;;2.97;;
42364;SDS011;28498;54.400;18.566;2022-10-17T10:15:00;10.15;;;3.03;;
42364;SDS011;28498;54.400;18.566;2022-10-17T10:17:37;7.13;;;3.00;;
42364;SDS011;28498;54.400;18.566;2022-10-17T10:23:03;8.02;;;3.50;;
42364;SDS011;28498;54.400;18.566;2022-10-17T10:25:37;5.82;;;3.22;;
42364;SDS011;28498;54.400;18.566;2022-10-17T10:28:14;5.95;;;3.30;;
42364;SDS011;28498;54.400;18.566;2022-10-17T10:30:45;8.88;;;3.47;;
42364;SDS011;28498;54.400;18.566;2022-10-17T10:33:14;7.20;;;3.25;;
42364;SDS011;28498;54.400;18.566;2022-10-17T10:35:45;5.45;;;3.45;;
42364;SDS011;28498;54.400;18.566;2022-10-17T10:38:21;7.00;;;3.55;;
42364;SDS011;28498;54.400;18.566;2022-10-17T10:40:50;7.28;;;3.75;;
42364;SDS011;28498;54.400;18.566;2022-10-17T10:43:26;6.85;;;4.38;;
42364;SDS011;28498;54.400;18.566;2022-10-17T10:46:02;5.13;;;3.67;;
42364;SDS011;28498;54.400;18.566;2022-10-17T10:48:40;7.07;;;3.60;;
42364;SDS011;28498;54.400;18.566;2022-10-17T10:56:49;6.85;;;3.53;;
42364;SDS011;28498;54.400;18.566;2022-10-17T10:59:23;9.35;;;3.75;;
42364;SDS011;28498;54.400;18.566;2022-10-17T11:02:00;7.72;;;4.63;;
42364;SDS011;28498;54.400;18.566;2022-10-17T11:05:00;5.53;;;3.83;;
42364;SDS011;28498;54.400;18.566;2022-10-17T11:13:08;7.63;;;4.35;;
42364;SDS011;28498;54.400;18.566;2022-10-17T11:15:54;9.93;;;4.00;;
42364;SDS011;28498;54.400;18.566;2022-10-17T11:18:34;7.13;;;3.85;;
42364;SDS011;28498;54.400;18.566;2022-10-17T11:21:17;6.32;;;4.03;;
42364;SDS011;28498;54.400;18.566;2022-10-17T11:23:47;7.32;;;4.60;;
42364;SDS011;28498;54.400;18.566;2022-10-17T11:30:07;11.02;;;5.18;;
42364;SDS011;28498;54.400;18.566;2022-10-17T11:36:29;12.43;;;6.03;;
42364;SDS011;28498;54.400;18.566;2022-10-17T11:39:06;7.38;;;4.95;;
42364;SDS011;28498;54.400;18.566;2022-10-17T11:44:38;13.07;;;6.00;;
42364;SDS011;28498;54.400;18.566;2022-10-17T11:49:40;13.13;;;6.97;;
42364;SDS011;28498;54.400;18.566;2022-10-17T12:06:38;11.80;;;7.90;;
42364;SDS011;28498;54.400;18.566;2022-10-17T12:09:51;7.65;;;6.25;;
42364;SDS011;28498;54.400;18.566;2022-10-17T12:12:33;11.20;;;6.15;;
42364;SDS011;28498;54.400;18.566;2022-10-17T12:17:53;9.43;;;6.70;;
42364;SDS011;28498;54.400;18.566;2022-10-17T12:23:03;11.77;;;7.20;;
42364;SDS011;28498;54.400;18.566;2022-10-17T12:25:37;10.63;;;7.13;;
42364;SDS011;28498;54.400;18.566;2022-10-17T12:33:48;11.65;;;8.40;;
42364;SDS011;28498;54.400;18.566;2022-10-17T12:41:51;12.60;;;8.85;;
42364;SDS011;28498;54.400;18.566;2022-10-17T12:49:24;11.63;;;9.23;;
42364;SDS011;28498;54.400;18.566;2022-10-17T13:02:45;12.30;;;7.70;;
42364;SDS011;28498;54.400;18.566;2022-10-17T13:05:23;9.23;;;7.25;;
42364;SDS011;28498;54.400;18.566;2022-10-17T13:08:04;12.02;;;7.80;;
42364;SDS011;28498;54.400;18.566;2022-10-17T13:10:36;11.73;;;7.47;;
42364;SDS011;28498;54.400;18.566;2022-10-17T13:15:53;10.73;;;6.93;;
42364;SDS011;28498;54.400;18.566;2022-10-17T13:18:22;7.43;;;6.20;;
42364;SDS011;28498;54.400;18.566;2022-10-17T13:21:33;10.63;;;7.05;;
42364;SDS011;28498;54.400;18.566;2022-10-17T13:23:41;9.77;;;6.97;;
42364;SDS011;28498;54.400;18.566;2022-10-17T13:26:13;12.85;;;7.63;;
42364;SDS011;28498;54.400;18.566;2022-10-17T13:28:42;10.93;;;8.03;;
42364;SDS011;28498;54.400;18.566;2022-10-17T13:31:32;10.90;;;7.97;;
42364;SDS011;28498;54.400;18.566;2022-10-17T13:33:58;11.95;;;8.45;;
42364;SDS011;28498;54.400;18.566;2022-10-17T13:36:27;17.10;;;10.20;;
42364;SDS011;28498;54.400;18.566;2022-10-17T13:38:59;14.90;;;10.68;;
42364;SDS011;28498;54.400;18.566;2022-10-17T13:41:39;17.10;;;9.88;;
42364;SDS011;28498;54.400;18.566;2022-10-17T13:44:09;15.82;;;10.48;;
42364;SDS011;28498;54.400;18.566;2022-10-17T13:46:43;16.42;;;11.85;;
42364;SDS011;28498;54.400;18.566;2022-10-17T13:49:18;14.10;;;10.25;;
42364;SDS011;28498;54.400;18.566;2022-10-17T13:51:53;13.93;;;10.15;;
42364;SDS011;28498;54.400;18.566;2022-10-17T13:57:20;15.68;;;10.27;;
42364;SDS011;28498;54.400;18.566;2022-10-17T13:59:53;37.72;;;13.63;;
42364;SDS011;28498;54.400;18.566;2022-10-17T14:02:26;18.13;;;10.50;;
42364;SDS011;28498;54.400;18.566;2022-10-17T14:07:50;14.77;;;10.02;;
42364;SDS011;28498;54.400;18.566;2022-10-17T14:10:40;16.88;;;11.20;;
42364;SDS011;28498;54.400;18.566;2022-10-17T14:13:25;24.50;;;13.77;;
42364;SDS011;28498;54.400;18.566;2022-10-17T14:15:53;15.13;;;9.95;;
42364;SDS011;28498;54.400;18.566;2022-10-17T14:18:25;16.80;;;8.75;;
42364;SDS011;28498;54.400;18.566;2022-10-17T14:21:01;15.50;;;8.25;;
42364;SDS011;28498;54.400;18.566;2022-10-17T14:23:49;11.25;;;7.03;;
42364;SDS011;28498;54.400;18.566;2022-10-17T14:26:19;12.57;;;8.23;;
42364;SDS011;28498;54.400;18.566;2022-10-17T14:28:49;11.90;;;7.50;;
42364;SDS011;28498;54.400;18.566;2022-10-17T14:31:29;11.57;;;7.55;;
42364;SDS011;28498;54.400;18.566;2022-10-17T14:34:01;12.27;;;7.82;;
42364;SDS011;28498;54.400;18.566;2022-10-17T14:36:31;14.02;;;8.70;;
42364;SDS011;28498;54.400;18.566;2022-10-17T14:39:15;13.45;;;8.70;;
42364;SDS011;28498;54.400;18.566;2022-10-17T14:41:45;16.33;;;9.10;;
42364;SDS011;28498;54.400;18.566;2022-10-17T14:47:03;16.67;;;8.60;;
42364;SDS011;28498;54.400;18.566;2022-10-17T14:50:03;13.65;;;9.55;;
42364;SDS011;28498;54.400;18.566;2022-10-17T14:52:33;14.63;;;9.20;;
42364;SDS011;28498;54.400;18.566;2022-10-17T14:55:12;12.75;;;8.45;;
42364;SDS011;28498;54.400;18.566;2022-10-17T14:57:52;11.27;;;9.02;;
42364;SDS011;28498;54.400;18.566;2022-10-17T15:00:19;13.27;;;9.27;;
42364;SDS011;28498;54.400;18.566;2022-10-17T15:02:48;11.65;;;8.55;;
42364;SDS011;28498;54.400;18.566;2022-10-17T15:05:16;10.82;;;8.38;;
42364;SDS011;28498;54.400;18.566;2022-10-17T15:07:45;13.10;;;8.57;;
42364;SDS011;28498;54.400;18.566;2022-10-17T15:12:51;14.98;;;10.10;;
42364;SDS011;28498;54.400;18.566;2022-10-17T15:15:29;12.88;;;9.05;;
42364;SDS011;28498;54.400;18.566;2022-10-17T15:17:57;14.57;;;9.75;;
42364;SDS011;28498;54.400;18.566;2022-10-17T15:20:25;13.10;;;9.55;;
42364;SDS011;28498;54.400;18.566;2022-10-17T15:22:58;13.77;;;10.93;;
42364;SDS011;28498;54.400;18.566;2022-10-17T15:25:27;12.35;;;9.30;;
42364;SDS011;28498;54.400;18.566;2022-10-17T15:27:55;12.82;;;9.32;;
42364;SDS011;28498;54.400;18.566;2022-10-17T15:30:28;12.70;;;9.13;;
42364;SDS011;28498;54.400;18.566;2022-10-17T15:32:57;15.73;;;10.25;;
42364;SDS011;28498;54.400;18.566;2022-10-17T15:35:25;13.43;;;8.82;;
42364;SDS011;28498;54.400;18.566;2022-10-17T15:37:53;14.20;;;9.95;;
42364;SDS011;28498;54.400;18.566;2022-10-17T15:40:22;11.95;;;9.80;;
42364;SDS011;28498;54.400;18.566;2022-10-17T15:42:56;15.93;;;11.23;;
42364;SDS011;28498;54.400;18.566;2022-10-17T15:45:23;17.02;;;10.85;;
42364;SDS011;28498;54.400;18.566;2022-10-17T15:47:54;16.20;;;11.43;;
42364;SDS011;28498;54.400;18.566;2022-10-17T15:50:24;15.40;;;11.77;;
42364;SDS011;28498;54.400;18.566;2022-10-17T15:52:54;17.70;;;11.43;;
42364;SDS011;28498;54.400;18.566;2022-10-17T15:55:21;15.90;;;11.38;;
42364;SDS011;28498;54.400;18.566;2022-10-17T15:57:48;21.27;;;12.43;;
42364;SDS011;28498;54.400;18.566;2022-10-17T16:02:44;20.90;;;12.55;;
42364;SDS011;28498;54.400;18.566;2022-10-17T16:05:13;21.95;;;13.98;;
42364;SDS011;28498;54.400;18.566;2022-10-17T16:07:44;18.80;;;13.45;;
42364;SDS011;28498;54.400;18.566;2022-10-17T16:10:12;20.08;;;13.73;;
42364;SDS011;28498;54.400;18.566;2022-10-17T16:12:39;18.75;;;13.65;;
42364;SDS011;28498;54.400;18.566;2022-10-17T16:15:29;20.38;;;15.02;;
42364;SDS011;28498;54.400;18.566;2022-10-17T16:17:55;19.88;;;14.57;;
42364;SDS011;28498;54.400;18.566;2022-10-17T16:20:24;28.88;;;14.60;;
42364;SDS011;28498;54.400;18.566;2022-10-17T16:22:51;21.65;;;15.48;;
42364;SDS011;28498;54.400;18.566;2022-10-17T16:25:26;20.73;;;14.73;;
42364;SDS011;28498;54.400;18.566;2022-10-17T16:27:54;23.35;;;15.77;;
42364;SDS011;28498;54.400;18.566;2022-10-17T16:30:24;26.23;;;17.35;;
42364;SDS011;28498;54.400;18.566;2022-10-17T16:32:53;22.60;;;16.42;;
42364;SDS011;28498;54.400;18.566;2022-10-17T16:35:25;27.13;;;17.60;;
42364;SDS011;28498;54.400;18.566;2022-10-17T16:38:01;26.77;;;17.80;;
42364;SDS011;28498;54.400;18.566;2022-10-17T16:40:29;26.38;;;17.80;;
42364;SDS011;28498;54.400;18.566;2022-10-17T16:42:56;24.85;;;17.95;;
42364;SDS011;28498;54.400;18.566;2022-10-17T16:45:23;26.52;;;18.70;;
42364;SDS011;28498;54.400;18.566;2022-10-17T16:47:50;25.27;;;17.58;;
42364;SDS011;28498;54.400;18.566;2022-10-17T16:50:18;24.60;;;18.50;;
42364;SDS011;28498;54.400;18.566;2022-10-17T16:52:45;26.20;;;17.88;;
42364;SDS011;28498;54.400;18.566;2022-10-17T16:55:12;26.45;;;18.30;;
42364;SDS011;28498;54.400;18.566;2022-10-17T16:57:41;27.08;;;18.55;;
42364;SDS011;28498;54.400;18.566;2022-10-17T17:00:10;25.75;;;18.83;;
42364;SDS011;28498;54.400;18.566;2022-10-17T17:02:38;24.45;;;18.15;;
42364;SDS011;28498;54.400;18.566;2022-10-17T17:05:05;26.15;;;19.40;;
42364;SDS011;28498;54.400;18.566;2022-10-17T17:07:32;30.25;;;20.33;;
42364;SDS011;28498;54.400;18.566;2022-10-17T17:09:59;29.63;;;20.42;;
42364;SDS011;28498;54.400;18.566;2022-10-17T17:12:26;33.47;;;21.63;;
42364;SDS011;28498;54.400;18.566;2022-10-17T17:14:53;32.90;;;22.13;;
42364;SDS011;28498;54.400;18.566;2022-10-17T17:17:20;33.50;;;22.98;;
42364;SDS011;28498;54.400;18.566;2022-10-17T17:20:07;37.13;;;23.35;;
42364;SDS011;28498;54.400;18.566;2022-10-17T17:22:34;33.78;;;22.92;;